Fall River Mills, CA (96028)

8:31 AM PDT on August 20, 2014 (GMT -0700)
Glenburn | Change Station
CLOSE
Current Station
Personal Weather Station
Location: Fall River Mills, CA
Elevation: 3347 ft
Nearby Weather Stations

Elev 3347 ft 41.08 °N, 121.54 °W | Updated 10 seconds ago

Clear
Clear
61.9 °F
Feels Like 61.9 °F
N
0.0
Wind Variable Wind from NE
Gusts 0.0 mph

Today
High -- | Low -- °F
--% Chance of Precip.
Yesterday
High -- | Low -- °F
Precip. -- in
6:20 AM 7:57 PM
Waning Crescent, 21% visible
Pressure 29.93 in
Visibility 10.0 miles
Clouds Clear
Dew Point 41 °F
Humidity 46%
Rainfall 0.00 in
Snow Depth Not available.
UV 1 out of 12
Pollen 6.80 out of 12
Air Quality Not available.
Flu Activity Not available.
METAR KMHS 201456Z AUTO 00000KT 10SM CLR 16/09 A2997 RMK AO2 SLP134 T01560094 52007

More Conditions Fewer Conditions

Pressure 29.93 in
Visibility 10.0 miles
Clouds Clear
Dew Point 41 °F
Humidity 46%
Rainfall 0.00 in
Snow Depth Not available.
UV 1 out of 12
Pollen 6.80 out of 12
Air Quality Not available.
Flu Activity Not available.
METAR KMHS 201456Z AUTO 00000KT 10SM CLR 16/09 A2997 RMK AO2 SLP134 T01560094 52007

More Conditions Fewer Conditions

10-Day Weather Forecast

Almanac

Astronomy

Aug. 20, 2014 Rise Set
Actual Time 6:20 AM PDT 7:57 PM PDT
Civil Twilight 5:51 AM PDT 8:26 PM PDT
Nautical Twilight 5:16 AM PDT 9:01 PM PDT
Astronomical Twilight 4:38 AM PDT 9:38 PM PDT
Moon 2:04 AM PDT 4:47 PM PDT
Length of Visible Light 14h 34m
Length of Day
13h 36m
Tomorrow will be 2m 30s shorter.
Waning Crescent, 21% of the Moon is Illuminated
Today
Waning Crescent
Aug 25
New
Sep 2
First Quarter
Sep 8
Full
Sep 15
Last Quarter

Today's Extremes

State Highs State Lows

Community

WunderPhotos

Upload Photos

1,745,667 photos uploaded!

WunderBlogs® & News

Nearby

Snow Depth

Station Depth Elevation
Adin Mountain 1 in 6200 ft
Crowder Flat 0 in 5100 ft
Cedar Pass 1 in 7100 ft
Independence Creek 0 in 6500 ft
Independence Camp 0 in 7000 ft

Earthquake Activity

City Distance Mag. Time & Date
Upper Lake, California 139 miles 2.9 3:32 PM PDT
2014-08-13
Minimum magnitude displayed is 2.5.

Coastal Water Temperatures

Place Temperature
No Stations Reporting

Nearby Weather Stations